createdAt,value
2023-03-11T00:00:45.559Z,14.10
2023-03-11T00:03:15.884Z,14.60
2023-03-11T00:05:44.568Z,15.50
2023-03-11T00:08:15.110Z,16.20
2023-03-11T00:10:44.398Z,16.20
2023-03-11T00:13:13.404Z,16.20
2023-03-11T00:15:40.726Z,15.20
2023-03-11T00:18:07.619Z,16.20
2023-03-11T00:20:39.945Z,16.20
2023-03-11T00:23:08.259Z,15.90
2023-03-11T00:25:37.180Z,16.20
2023-03-11T00:28:05.529Z,16.20
2023-03-11T00:30:32.393Z,16.20
2023-03-11T00:33:00.323Z,16.20
2023-03-11T00:35:30.515Z,16.30
2023-03-11T00:38:00.203Z,16.20
2023-03-11T00:40:29.689Z,15.20
2023-03-11T00:42:57.025Z,14.70
2023-03-11T00:45:24.612Z,14.30
2023-03-11T00:47:52.401Z,14.00
2023-03-11T00:50:22.353Z,13.70
2023-03-11T00:52:50.033Z,13.30
2023-03-11T00:55:28.594Z,13.40
2023-03-11T00:58:00.756Z,13.20
2023-03-11T01:00:28.710Z,13.80
2023-03-11T01:02:56.551Z,14.30
2023-03-11T01:05:27.584Z,14.30
2023-03-11T01:07:54.297Z,14.30
2023-03-11T01:10:21.097Z,14.10
2023-03-11T01:12:48.122Z,14.40
2023-03-11T01:15:25.545Z,15.00
2023-03-11T01:17:52.346Z,16.20
2023-03-11T01:20:19.331Z,16.20
2023-03-11T01:22:46.100Z,16.10
2023-03-11T01:25:18.584Z,16.10
2023-03-11T01:27:46.470Z,16.10
2023-03-11T01:30:20.298Z,16.10
2023-03-11T01:32:47.429Z,16.00
2023-03-11T01:35:17.227Z,15.90
2023-03-11T01:37:44.304Z,16.90
2023-03-11T01:40:26.081Z,17.00
2023-03-11T01:42:52.852Z,17.60
2023-03-11T01:45:51.772Z,18.00
2023-03-11T01:48:18.579Z,18.50
2023-03-11T01:50:49.550Z,16.80
2023-03-11T01:53:17.894Z,17.90
2023-03-11T01:55:45.862Z,17.10
2023-03-11T01:58:16.970Z,16.40
2023-03-11T02:00:44.044Z,16.40
2023-03-11T02:03:41.407Z,16.40
2023-03-11T02:06:14.850Z,15.60
2023-03-11T02:08:43.305Z,15.60
2023-03-11T02:11:15.272Z,15.60
2023-03-11T02:13:43.201Z,15.60
2023-03-11T02:16:10.507Z,15.60
2023-03-11T02:18:37.881Z,15.50
2023-03-11T02:21:26.855Z,16.20
2023-03-11T02:24:05.744Z,15.40
2023-03-11T02:26:56.565Z,15.50
2023-03-11T02:29:24.661Z,16.30
2023-03-11T02:31:52.170Z,15.40
2023-03-11T02:34:25.778Z,15.50
2023-03-11T02:36:52.842Z,16.80
2023-03-11T02:39:29.987Z,16.30
2023-03-11T02:41:57.441Z,17.10
2023-03-11T02:44:24.671Z,17.10
2023-03-11T02:46:53.088Z,15.40
2023-03-11T02:49:21.615Z,17.10
2023-03-11T02:51:48.327Z,16.80
2023-03-11T02:54:15.160Z,16.50
2023-03-11T02:56:41.914Z,16.80
2023-03-11T02:59:08.665Z,16.00
2023-03-11T03:01:35.869Z,16.20
2023-03-11T03:04:02.758Z,15.30
2023-03-11T03:06:29.491Z,15.30
2023-03-11T03:08:56.412Z,15.30
2023-03-11T03:11:23.277Z,13.40
2023-03-11T03:13:49.933Z,15.30
2023-03-11T03:16:16.668Z,14.10
2023-03-11T03:18:43.634Z,12.90
2023-03-11T03:21:10.435Z,12.60
2023-03-11T03:23:37.833Z,13.10
2023-03-11T03:26:06.084Z,14.50
2023-03-11T03:28:33.280Z,14.00
2023-03-11T03:31:12.187Z,13.10
2023-03-11T03:33:39.161Z,13.10
2023-03-11T03:36:07.830Z,12.30
2023-03-11T03:38:34.630Z,13.30
2023-03-11T03:41:01.329Z,12.20
2023-03-11T03:43:28.088Z,11.30
2023-03-11T03:46:04.327Z,11.00
2023-03-11T03:48:31.289Z,11.70
2023-03-11T03:51:06.276Z,11.80
2023-03-11T03:53:34.631Z,9.20
2023-03-11T03:56:06.284Z,11.30
2023-03-11T03:58:33.565Z,11.40
2023-03-11T04:01:00.797Z,11.60
2023-03-11T04:03:28.400Z,11.10
2023-03-11T04:06:04.945Z,12.00
2023-03-11T04:08:31.666Z,11.80
2023-03-11T04:10:58.600Z,12.60
2023-03-11T04:13:25.346Z,12.60
2023-03-11T04:15:52.208Z,12.20
2023-03-11T04:18:19.265Z,12.10
2023-03-11T04:20:46.532Z,11.90
2023-03-11T04:23:13.257Z,12.00
2023-03-11T04:25:40.020Z,11.30
2023-03-11T04:28:07.117Z,11.40
2023-03-11T04:30:34.018Z,11.40
2023-03-11T04:33:00.837Z,12.30
2023-03-11T04:35:27.604Z,11.50
2023-03-11T04:37:54.304Z,11.50
2023-03-11T04:40:21.190Z,12.00
2023-03-11T04:42:48.048Z,12.00
2023-03-11T04:45:14.992Z,12.50
2023-03-11T04:47:41.798Z,13.00
2023-03-11T04:50:08.982Z,12.90
2023-03-11T04:52:35.759Z,12.90
2023-03-11T04:55:02.547Z,13.40
2023-03-11T04:57:29.241Z,13.90
2023-03-11T04:59:56.141Z,14.80
2023-03-11T05:02:22.904Z,14.80
2023-03-11T05:04:49.755Z,13.80
2023-03-11T05:07:17.030Z,14.60
2023-03-11T05:09:43.983Z,14.70
2023-03-11T05:12:12.411Z,14.70
2023-03-11T05:14:39.225Z,14.70
2023-03-11T05:17:06.052Z,14.70
2023-03-11T05:19:34.906Z,13.90
2023-03-11T05:22:03.756Z,12.50
2023-03-11T05:24:30.726Z,10.90
2023-03-11T05:26:57.921Z,12.20
2023-03-11T05:29:25.965Z,12.20
2023-03-11T05:31:53.549Z,12.30
2023-03-11T05:34:20.761Z,12.40
2023-03-11T05:36:49.177Z,12.50
2023-03-11T05:39:16.045Z,12.60
2023-03-11T05:41:43.121Z,12.60
2023-03-11T05:44:10.108Z,13.00
2023-03-11T05:46:37.038Z,13.00
2023-03-11T05:49:04.605Z,13.70
2023-03-11T05:51:31.507Z,13.60
2023-03-11T05:53:58.734Z,14.10
2023-03-11T05:56:25.698Z,14.50
2023-03-11T05:58:52.473Z,14.70
2023-03-11T06:01:20.133Z,13.00
2023-03-11T06:03:47.027Z,13.60
2023-03-11T06:06:14.705Z,13.10
2023-03-11T06:08:45.992Z,12.90
2023-03-11T06:11:13.208Z,12.70
2023-03-11T06:13:40.054Z,12.50
2023-03-11T06:16:07.770Z,12.60
2023-03-11T06:18:35.024Z,12.80
2023-03-11T06:21:03.178Z,12.80
2023-03-11T06:23:31.931Z,12.70
2023-03-11T06:26:05.061Z,12.90
2023-03-11T06:28:32.835Z,12.60
2023-03-11T06:31:09.868Z,13.70
2023-03-11T06:33:36.670Z,12.50
2023-03-11T06:36:05.397Z,12.20
2023-03-11T06:38:33.929Z,12.30
2023-03-11T06:41:03.807Z,12.10
2023-03-11T06:43:31.505Z,12.20
2023-03-11T06:45:58.707Z,12.50
2023-03-11T06:48:26.377Z,12.60
2023-03-11T06:51:00.811Z,12.70
2023-03-11T06:53:28.898Z,11.40
2023-03-11T06:56:13.272Z,12.70
2023-03-11T06:58:42.496Z,11.30
2023-03-11T07:01:16.150Z,10.80
2023-03-11T07:03:43.595Z,10.50
2023-03-11T07:06:19.627Z,9.80
2023-03-11T07:08:48.671Z,11.30
2023-03-11T07:11:19.216Z,11.60
2023-03-11T07:13:47.085Z,11.30
2023-03-11T07:16:16.978Z,11.80
2023-03-11T07:18:46.322Z,11.20
2023-03-11T07:21:16.443Z,11.60
2023-03-11T07:23:43.753Z,11.20
2023-03-11T07:26:12.299Z,11.40
2023-03-11T07:28:39.489Z,10.50
2023-03-11T07:31:21.282Z,11.00
2023-03-11T07:33:48.018Z,9.80
2023-03-11T07:36:18.704Z,10.90
2023-03-11T07:38:49.778Z,9.70
2023-03-11T07:41:16.650Z,8.50
2023-03-11T07:43:43.747Z,8.30
2023-03-11T07:46:13.989Z,9.20
2023-03-11T07:48:41.009Z,9.10
2023-03-11T07:51:14.918Z,8.70
2023-03-11T07:53:42.665Z,8.40
2023-03-11T07:56:11.785Z,7.60
2023-03-11T07:58:39.548Z,7.80
2023-03-11T08:01:08.964Z,8.10
2023-03-11T08:03:36.433Z,8.20
2023-03-11T08:06:11.188Z,6.60
2023-03-11T08:08:37.927Z,7.00
2023-03-11T08:11:04.798Z,6.70
2023-03-11T08:13:31.515Z,7.70
2023-03-11T08:15:58.291Z,7.40
2023-03-11T08:18:25.009Z,6.70
2023-03-11T08:20:52.021Z,7.20
2023-03-11T08:23:18.907Z,7.10
2023-03-11T08:25:45.777Z,5.40
2023-03-11T08:28:12.529Z,5.60
2023-03-11T08:30:41.647Z,5.60
2023-03-11T08:33:08.807Z,5.90
2023-03-11T08:35:35.642Z,4.00
2023-03-11T08:38:02.631Z,2.90
2023-03-11T08:40:29.450Z,4.00
2023-03-11T08:42:56.639Z,5.00
2023-03-11T08:45:23.393Z,5.40
2023-03-11T08:47:50.194Z,5.10
2023-03-11T08:50:19.901Z,6.30
2023-03-11T08:52:46.860Z,6.50
2023-03-11T08:55:24.937Z,7.50
2023-03-11T08:57:52.065Z,5.00
2023-03-11T09:00:19.335Z,3.90
2023-03-11T09:02:46.245Z,3.40
2023-03-11T09:05:13.084Z,1.00
2023-03-11T09:07:39.894Z,1.00
2023-03-11T09:10:06.863Z,1.20
2023-03-11T09:12:33.568Z,1.00
2023-03-11T09:15:00.344Z,1.00
2023-03-11T09:17:27.186Z,1.00
2023-03-11T09:19:53.906Z,1.00
2023-03-11T09:22:20.704Z,1.00
2023-03-11T09:24:47.456Z,1.00
2023-03-11T09:27:15.396Z,1.00
2023-03-11T09:29:42.417Z,1.00
2023-03-11T09:32:13.333Z,1.00
2023-03-11T09:34:40.280Z,1.00
2023-03-11T09:37:07.492Z,1.00
2023-03-11T09:39:34.701Z,1.00
2023-03-11T09:43:09.145Z,1.00
2023-03-11T09:45:41.014Z,1.00
2023-03-11T09:48:23.912Z,1.00
2023-03-11T09:50:57.649Z,1.00
2023-03-11T09:53:46.655Z,1.00
2023-03-11T09:56:19.970Z,1.00
2023-03-11T09:58:52.531Z,1.00
2023-03-11T10:01:47.041Z,1.00
2023-03-11T10:04:16.943Z,1.00
2023-03-11T10:06:46.640Z,1.00
2023-03-11T10:09:45.956Z,1.00
2023-03-11T10:12:49.952Z,1.00
2023-03-11T10:15:39.630Z,1.00
2023-03-11T10:18:18.582Z,1.00
2023-03-11T10:21:18.191Z,1.00
2023-03-11T10:24:21.275Z,1.00
2023-03-11T10:27:00.055Z,1.00
2023-03-11T10:29:30.208Z,1.00
2023-03-11T10:32:06.134Z,1.00
2023-03-11T10:34:42.078Z,1.00
2023-03-11T10:37:48.333Z,1.00
2023-03-11T10:40:25.789Z,1.00
2023-03-11T10:42:56.301Z,1.00
2023-03-11T10:45:23.898Z,1.00
2023-03-11T10:47:50.628Z,1.00
2023-03-11T10:50:19.303Z,1.00
2023-03-11T10:53:09.494Z,1.00
2023-03-11T10:55:46.517Z,1.00
2023-03-11T10:58:16.014Z,1.00
2023-03-11T11:00:43.392Z,1.00
2023-03-11T11:03:21.033Z,1.00
2023-03-11T11:05:59.209Z,1.00
2023-03-11T11:08:25.906Z,1.00
2023-03-11T11:10:58.248Z,1.00
2023-03-11T11:13:34.557Z,1.00
2023-03-11T11:16:16.893Z,1.00
2023-03-11T11:18:50.261Z,1.00
2023-03-11T11:21:43.381Z,1.00
2023-03-11T11:24:23.411Z,1.00
2023-03-11T11:27:20.035Z,1.00
2023-03-11T11:29:48.766Z,1.00
2023-03-11T11:32:16.840Z,1.00
2023-03-11T11:35:00.645Z,1.00
2023-03-11T11:37:32.530Z,1.00
2023-03-11T11:40:11.479Z,1.00
2023-03-11T11:42:42.815Z,1.00
2023-03-11T11:45:15.138Z,1.00
2023-03-11T11:47:48.239Z,1.00
2023-03-11T11:50:24.978Z,1.00
2023-03-11T11:52:58.182Z,1.00
2023-03-11T11:55:28.415Z,1.00
2023-03-11T11:57:55.071Z,1.00
2023-03-11T12:00:37.562Z,1.00
2023-03-11T12:03:32.247Z,1.00
2023-03-11T12:06:02.557Z,1.00
2023-03-11T12:08:54.780Z,1.00
2023-03-11T12:11:52.323Z,1.00
2023-03-11T12:14:23.902Z,1.00
2023-03-11T12:16:53.348Z,1.00
2023-03-11T12:19:24.087Z,1.00
2023-03-11T12:21:56.558Z,1.00
2023-03-11T12:24:59.189Z,1.00
2023-03-11T12:27:31.397Z,1.00
2023-03-11T12:30:02.900Z,1.00
2023-03-11T12:32:36.754Z,1.00
2023-03-11T12:35:18.883Z,1.00
2023-03-11T12:37:45.770Z,1.00
2023-03-11T12:41:05.358Z,1.00
2023-03-11T12:43:34.968Z,1.00
2023-03-11T12:46:13.367Z,1.00
2023-03-11T12:48:45.806Z,1.00
2023-03-11T12:51:27.781Z,1.00
2023-03-11T12:53:55.619Z,1.00
2023-03-11T12:56:48.366Z,1.00
2023-03-11T12:59:49.376Z,1.00
2023-03-11T13:02:49.807Z,1.00
2023-03-11T13:05:41.088Z,1.00
2023-03-11T13:08:16.417Z,1.00
2023-03-11T13:10:51.154Z,1.00
2023-03-11T13:13:31.110Z,1.00
2023-03-11T13:16:18.491Z,1.00
2023-03-11T13:18:47.699Z,1.00
2023-03-11T13:21:32.331Z,1.00
2023-03-11T13:24:31.024Z,1.00
2023-03-11T13:27:09.073Z,1.00
2023-03-11T13:29:52.221Z,1.00
2023-03-11T13:32:37.041Z,1.00
2023-03-11T13:35:06.708Z,1.00
2023-03-11T13:37:36.441Z,1.00
2023-03-11T13:40:38.571Z,1.00
2023-03-11T13:43:14.945Z,1.00
2023-03-11T13:45:46.429Z,1.00
2023-03-11T13:48:13.161Z,1.00
2023-03-11T13:50:45.386Z,1.00
2023-03-11T13:53:25.806Z,1.00
2023-03-11T13:55:52.988Z,1.00
2023-03-11T13:58:25.590Z,1.00
2023-03-11T14:00:58.285Z,1.00
2023-03-11T14:03:27.034Z,1.00
2023-03-11T14:06:19.722Z,1.00
2023-03-11T14:08:57.281Z,1.00
2023-03-11T14:11:29.245Z,1.00
2023-03-11T14:13:56.472Z,1.00
2023-03-11T14:16:44.024Z,1.00
2023-03-11T14:19:18.621Z,1.00
2023-03-11T14:21:51.519Z,1.00
2023-03-11T14:24:29.763Z,1.00
2023-03-11T14:26:59.992Z,1.00
2023-03-11T14:29:36.007Z,1.00
2023-03-11T14:32:29.629Z,1.00
2023-03-11T14:34:57.459Z,1.00
2023-03-11T14:37:39.485Z,1.00
2023-03-11T14:40:39.112Z,1.00
2023-03-11T14:43:07.944Z,1.00
2023-03-11T14:45:40.650Z,1.00
2023-03-11T14:48:21.015Z,1.00
2023-03-11T14:50:50.093Z,1.00
2023-03-11T14:53:34.993Z,1.00
2023-03-11T14:56:15.827Z,1.00
2023-03-11T14:59:06.397Z,1.00
2023-03-11T15:01:42.984Z,1.00
2023-03-11T15:04:26.821Z,1.00
2023-03-11T15:06:54.886Z,1.00
2023-03-11T15:09:23.817Z,1.00
2023-03-11T15:12:02.081Z,1.00
2023-03-11T15:14:32.934Z,1.00
2023-03-11T15:17:38.519Z,1.00
2023-03-11T15:20:30.941Z,1.00
2023-03-11T15:23:04.265Z,1.00
2023-03-11T15:25:37.197Z,1.00
2023-03-11T15:28:31.137Z,1.00
2023-03-11T15:31:19.862Z,1.00
2023-03-11T15:33:47.326Z,1.00
2023-03-11T15:36:32.802Z,1.00
2023-03-11T15:39:12.379Z,1.00
2023-03-11T15:41:42.731Z,1.00
2023-03-11T15:44:28.024Z,1.00
2023-03-11T15:46:54.926Z,1.00
2023-03-11T15:49:21.834Z,1.00
2023-03-11T15:51:48.622Z,1.00
2023-03-11T15:54:15.417Z,1.00
2023-03-11T15:56:43.567Z,1.00
2023-03-11T15:59:16.287Z,1.00
2023-03-11T16:01:43.945Z,1.00
2023-03-11T16:04:16.233Z,1.00
2023-03-11T16:06:44.598Z,1.00
2023-03-11T16:09:12.367Z,1.00
2023-03-11T16:11:40.162Z,1.00
2023-03-11T16:14:13.684Z,1.00
2023-03-11T16:16:40.687Z,1.00
2023-03-11T16:19:08.556Z,1.00
2023-03-11T16:21:38.360Z,1.00
2023-03-11T16:24:06.252Z,1.00
2023-03-11T16:26:34.467Z,1.00
2023-03-11T16:29:16.594Z,1.00
2023-03-11T16:31:45.636Z,1.00
2023-03-11T16:34:12.384Z,1.00
2023-03-11T16:36:39.126Z,1.00
2023-03-11T16:39:05.836Z,1.00
2023-03-11T16:41:42.286Z,1.00
2023-03-11T16:44:09.891Z,1.00
2023-03-11T16:46:37.121Z,1.00
2023-03-11T16:49:05.165Z,1.00
2023-03-11T16:51:32.635Z,1.00
2023-03-11T16:53:59.868Z,1.00
2023-03-11T16:56:27.232Z,1.00
2023-03-11T16:58:54.236Z,1.00
2023-03-11T17:01:21.792Z,1.00
2023-03-11T17:03:50.745Z,1.00
2023-03-11T17:06:17.744Z,1.00
2023-03-11T17:08:49.151Z,1.00
2023-03-11T17:11:20.839Z,1.00
2023-03-11T17:13:47.781Z,1.00
2023-03-11T17:16:14.828Z,1.00
2023-03-11T17:18:42.062Z,1.00
2023-03-11T17:21:11.390Z,1.00
2023-03-11T17:23:38.096Z,1.00
2023-03-11T17:26:10.676Z,1.00
2023-03-11T17:28:39.955Z,1.00
2023-03-11T17:31:15.531Z,1.00
2023-03-11T17:33:42.843Z,1.00
2023-03-11T17:36:14.689Z,1.00
2023-03-11T17:38:41.994Z,1.00
2023-03-11T17:41:16.363Z,1.00
2023-03-11T17:43:43.742Z,1.00
2023-03-11T17:46:14.385Z,1.00
2023-03-11T17:48:45.955Z,1.00
2023-03-11T17:51:16.225Z,1.00
2023-03-11T17:53:45.906Z,1.00
2023-03-11T17:56:14.424Z,1.00
2023-03-11T17:58:41.628Z,1.00
2023-03-11T18:01:23.054Z,1.00
2023-03-11T18:03:50.631Z,1.00
2023-03-11T18:06:18.938Z,1.00
2023-03-11T18:08:45.876Z,1.00
2023-03-11T18:11:18.261Z,1.00
2023-03-11T18:13:46.204Z,1.00
2023-03-11T18:16:19.243Z,1.00
2023-03-11T18:18:46.827Z,1.00
2023-03-11T18:21:22.540Z,1.00
2023-03-11T18:23:49.534Z,1.00
2023-03-11T18:26:18.393Z,1.00
2023-03-11T18:28:45.923Z,1.00
2023-03-11T18:31:18.309Z,1.00
2023-03-11T18:33:57.535Z,1.00
2023-03-11T18:36:29.424Z,1.00
2023-03-11T18:38:57.658Z,1.00
2023-03-11T18:41:25.525Z,1.00
2023-03-11T18:43:58.838Z,1.00
2023-03-11T18:46:28.370Z,1.00
2023-03-11T18:48:57.567Z,1.00
2023-03-11T18:51:25.516Z,1.00
2023-03-11T18:53:52.185Z,1.00
2023-03-11T18:56:19.492Z,1.00
2023-03-11T18:58:46.620Z,1.00
2023-03-11T19:01:16.617Z,1.00
2023-03-11T19:03:45.145Z,1.00
2023-03-11T19:06:13.331Z,1.00
2023-03-11T19:08:40.444Z,1.00
2023-03-11T19:11:08.732Z,1.00
2023-03-11T19:13:46.696Z,1.00
2023-03-11T19:16:15.788Z,1.00
2023-03-11T19:18:42.558Z,1.00
2023-03-11T19:21:11.986Z,1.00
2023-03-11T19:23:38.753Z,1.00
2023-03-11T19:26:05.700Z,1.00
2023-03-11T19:28:32.427Z,1.00
2023-03-11T19:30:59.541Z,1.00
2023-03-11T19:33:26.931Z,1.00
2023-03-11T19:35:55.434Z,1.00
2023-03-11T19:38:23.214Z,1.00
2023-03-11T19:40:54.296Z,1.00
2023-03-11T19:43:23.737Z,1.00
2023-03-11T19:45:50.587Z,1.00
2023-03-11T19:48:17.662Z,1.00
2023-03-11T19:50:45.411Z,1.00
2023-03-11T19:53:12.083Z,1.00
2023-03-11T19:55:44.161Z,1.00
2023-03-11T19:58:11.007Z,1.00
2023-03-11T20:00:40.315Z,1.00
2023-03-11T20:03:08.125Z,1.00
2023-03-11T20:05:36.758Z,1.00
2023-03-11T20:08:04.669Z,1.00
2023-03-11T20:10:31.445Z,1.00
2023-03-11T20:13:02.329Z,1.00
2023-03-11T20:15:30.374Z,1.00
2023-03-11T20:17:57.558Z,1.00
2023-03-11T20:20:24.789Z,1.00
2023-03-11T20:22:51.822Z,1.00
2023-03-11T20:25:18.666Z,1.00
2023-03-11T20:27:45.546Z,1.00
2023-03-11T20:30:13.440Z,1.00
2023-03-11T20:32:40.267Z,1.00
2023-03-11T20:35:07.594Z,1.00
2023-03-11T20:37:34.263Z,1.00
2023-03-11T20:40:01.160Z,1.00
2023-03-11T20:42:27.975Z,1.00
2023-03-11T20:44:54.818Z,1.00
2023-03-11T20:47:21.714Z,1.00
2023-03-11T20:49:48.521Z,1.00
2023-03-11T20:52:15.570Z,1.00
2023-03-11T20:54:42.411Z,1.00
2023-03-11T20:57:09.282Z,1.00
2023-03-11T20:59:36.115Z,1.00
2023-03-11T21:02:03.424Z,1.00
2023-03-11T21:04:30.385Z,1.00
2023-03-11T21:06:57.547Z,1.00
2023-03-11T21:09:24.725Z,1.00
2023-03-11T21:11:51.969Z,1.00
2023-03-11T21:14:19.473Z,1.00
2023-03-11T21:16:46.451Z,1.00
2023-03-11T21:19:13.908Z,1.00
2023-03-11T21:21:41.205Z,1.00
2023-03-11T21:24:08.264Z,1.00
2023-03-11T21:26:35.221Z,1.00
2023-03-11T21:29:02.028Z,1.00
2023-03-11T21:31:29.914Z,1.00
2023-03-11T21:33:59.227Z,1.00
2023-03-11T21:36:26.111Z,1.00
2023-03-11T21:38:53.251Z,1.00
2023-03-11T21:41:25.697Z,1.00
2023-03-11T21:43:54.535Z,1.00
2023-03-11T21:46:24.889Z,1.00
2023-03-11T21:48:51.899Z,1.00
2023-03-11T21:51:19.886Z,1.00
2023-03-11T21:53:46.991Z,1.00
2023-03-11T21:56:14.921Z,1.00
2023-03-11T21:58:42.332Z,1.00
2023-03-11T22:01:10.341Z,1.00
2023-03-11T22:03:38.010Z,1.00
2023-03-11T22:06:08.394Z,1.00
2023-03-11T22:08:35.930Z,1.00
2023-03-11T22:11:03.417Z,1.00
2023-03-11T22:13:30.504Z,1.00
2023-03-11T22:15:57.193Z,1.00
2023-03-11T22:18:24.016Z,1.00
2023-03-11T22:20:50.870Z,1.00
2023-03-11T22:23:17.616Z,1.00
2023-03-11T22:25:44.680Z,1.00
2023-03-11T22:28:12.952Z,1.00
2023-03-11T22:30:39.813Z,1.00
2023-03-11T22:33:07.367Z,1.00
2023-03-11T22:35:34.283Z,1.00
2023-03-11T22:38:01.077Z,1.00
2023-03-11T22:40:28.106Z,1.00
2023-03-11T22:42:54.968Z,1.00
2023-03-11T22:45:22.847Z,1.00
2023-03-11T22:47:50.258Z,1.00
2023-03-11T22:50:18.051Z,1.00
2023-03-11T22:52:45.014Z,1.00
2023-03-11T22:55:11.777Z,1.00
2023-03-11T22:57:38.962Z,1.00
2023-03-11T23:00:21.115Z,1.00
2023-03-11T23:02:52.017Z,1.00
2023-03-11T23:05:18.911Z,1.00
2023-03-11T23:07:45.748Z,1.00
2023-03-11T23:10:13.951Z,1.00
2023-03-11T23:12:41.617Z,1.00
2023-03-11T23:15:11.928Z,1.00
2023-03-11T23:17:38.794Z,1.00
2023-03-11T23:20:07.744Z,1.00
2023-03-11T23:22:39.024Z,1.00
2023-03-11T23:25:09.409Z,1.00
2023-03-11T23:27:36.279Z,1.00
2023-03-11T23:30:04.682Z,1.00
2023-03-11T23:32:31.419Z,1.00
2023-03-11T23:34:58.231Z,1.00
2023-03-11T23:37:25.001Z,1.00
2023-03-11T23:39:51.875Z,1.00
2023-03-11T23:42:25.591Z,1.00
2023-03-11T23:44:53.029Z,1.00
2023-03-11T23:47:19.883Z,1.00
2023-03-11T23:49:46.584Z,1.00
2023-03-11T23:52:13.533Z,1.00
2023-03-11T23:54:40.330Z,1.00
2023-03-11T23:57:07.043Z,1.00
2023-03-11T23:59:33.839Z,1.00
